Latest Weather Observations for kunanyi / Mount Wellington

IDT60801

Issued at 8:31 am EST Tuesday 17 September 2019 (issued every 10 minutes, with the page automatically refreshed every 10 minutes)

About weather observations | Map of weather stations | Latest weather observations for TAS | Other Formats
Station Details ID: 094087 Name: KUNANYI (MOUNT WELLINGTON PINNACLE) Lat: -42.90 Lon: 147.24 Height: 1260.47 m
Data from the previous 72 hours. | See also: Recent months at kunanyi / Mount Wellington
Date/Time
EST
Temp
°C
App
Temp
°C
Dew
Point
°C
Rel
Hum
%
Delta-T
°C
Wind Press
QNH
hPa
Press
MSL
hPa
Rain since
9am
mm
Dir  Spd
km/h
Gust
km/h
Spd
kts
Gust
kts
17/08:30am -2.4 -10.0 -5.7 78 1.0 WSW 26 35 14 19 - - 0.8
17/08:00am -3.2 -12.9 -6.0 81 0.8 WSW 37 44 20 24 - - 0.8
17/07:30am -3.4 -13.9 -6.2 81 0.8 WSW 41 48 22 26 - - 0.8
17/07:00am -4.1 -13.4 -5.8 88 0.4 WSW 35 41 19 22 - - 0.8
17/06:30am -3.7 -13.1 -6.8 79 0.8 WSW 35 44 19 24 - - 0.8
17/06:00am -4.2 -11.9 -6.8 82 0.6 SW 26 32 14 17 - - 0.8
17/05:30am -4.1 -13.5 -6.5 83 0.6 SW 35 43 19 23 - - 0.8
17/05:00am -4.3 -14.2 -7.2 80 0.7 WSW 37 46 20 25 - - 0.8
17/04:30am -4.3 -15.0 -8.4 73 1.1 WSW 41 46 22 25 - - 0.8
17/04:00am -4.6 -15.7 -6.7 85 0.5 WSW 44 52 24 28 - - 0.8
17/03:30am -4.6 -15.1 -6.4 87 0.4 WSW 41 48 22 26 - - 0.8
17/03:00am -4.4 -15.3 -6.1 88 0.4 WSW 43 52 23 28 - - 0.8
17/02:30am -4.5 -15.4 -5.9 90 0.3 SW 43 54 23 29 - - 0.8
17/02:00am -4.4 -15.4 -5.2 94 0.1 SW 44 52 24 28 - - 0.8
17/01:30am -4.6 -16.0 -5.6 93 0.1 SW 46 54 25 29 - - 0.8
17/01:00am -4.3 -15.7 -5.5 91 0.2 WSW 46 56 25 30 - - 0.8
17/12:30am -4.5 -15.9 -5.6 92 0.2 WSW 46 52 25 28 - - 0.8
17/12:00am -4.6 -16.0 -5.6 93 0.1 WSW 46 50 25 27 - - 0.8
 
Date/Time
EST
Temp
°C
App
Temp
°C
Dew
Point
°C
Rel
Hum
%
Delta-T
°C
Wind Press
QNH
hPa
Press
MSL
hPa
Rain since
9am
mm
Dir  Spd
km/h
Gust
km/h
Spd
kts
Gust
kts
16/11:30pm -4.7 -16.1 -5.5 94 0.1 SW 46 54 25 29 - - 0.8
16/11:00pm -4.8 -16.2 -5.9 92 0.2 SW 46 50 25 27 - - 0.8
16/10:30pm -4.6 -16.4 -5.7 92 0.2 SW 48 57 26 31 - - 0.8
16/10:00pm -4.7 -16.5 -5.9 91 0.2 SW 48 57 26 31 - - 0.8
16/09:30pm -4.7 -16.1 -5.7 93 0.1 SW 46 54 25 29 - - 0.8
16/09:00pm -4.7 -15.2 -6.1 90 0.3 SW 41 48 22 26 - - 0.8
16/08:30pm -5.0 -16.1 -6.0 93 0.1 SW 44 50 24 27 - - 0.8
16/08:00pm -4.9 -16.7 -5.7 94 0.1 WSW 48 59 26 32 - - 0.8
16/07:30pm -4.8 -15.8 -5.6 94 0.1 WSW 44 54 24 29 - - 0.8
16/07:00pm -5.1 -17.0 -6.5 90 0.2 SW 48 52 26 28 - - 0.8
16/06:30pm -4.8 -14.2 -6.2 90 0.2 WSW 35 43 19 23 - - 0.6
16/06:00pm -4.4 -14.2 -6.2 87 0.4 WSW 37 46 20 25 - - 0.6
16/05:30pm -4.0 -13.4 -6.9 80 0.7 WSW 35 44 19 24 - - 0.6
16/05:00pm -3.4 -12.2 -5.7 84 0.6 SW 32 39 17 21 - - 0.6
16/04:30pm -3.7 -10.2 -5.7 86 0.5 W 20 32 11 17 - - 0.6
16/04:00pm -3.4 -11.4 -5.9 83 0.7 WSW 28 35 15 19 - - 0.6
16/03:30pm -3.5 -11.1 -6.0 83 0.7 WSW 26 32 14 17 - - 0.6
16/03:00pm -3.7 -11.7 -5.4 88 0.4 WSW 28 35 15 19 - - 0.6
16/02:30pm -3.6 -11.5 -5.0 90 0.3 WSW 28 35 15 19 - - 0.6
16/02:00pm -3.5 -12.3 -4.2 95 0.1 SW 33 41 18 22 - - 0.6
16/01:30pm -3.4 -11.2 -4.1 95 0.1 SW 28 37 15 20 - - 0.4
16/01:00pm -3.9 -13.5 -4.7 94 0.1 SW 37 50 20 27 - - 0.2
16/12:30pm -4.3 -15.1 -5.0 95 0.0 SW 43 57 23 31 - - 0.2
16/12:23pm -3.6 -12.4 -4.3 95 0.1 SSW 33 54 18 29 - - 0.2
16/12:00pm -3.4 -10.9 -4.1 95 0.1 WSW 26 35 14 19 - - 0.2
16/11:30am -3.5 -12.1 -4.2 95 0.1 WSW 32 46 17 25 - - 0.2
16/11:00am -3.5 -13.1 -4.2 95 0.1 WSW 37 48 20 26 - - 0.0
16/10:30am -3.8 -14.7 -4.5 95 0.1 WSW 44 54 24 29 - - 0.0
16/10:16am -3.7 -15.0 -4.4 95 0.1 SW 46 65 25 35 - - 0.0
16/10:00am -3.8 -15.1 -4.5 95 0.1 WSW 46 57 25 31 - - 0.0
16/09:30am -3.9 -14.8 -4.6 95 0.1 WSW 44 57 24 31 - - 0.0
16/09:00am -4.0 -14.9 -4.7 95 0.1 WSW 44 57 24 31 - - 0.4
16/08:30am -4.2 -15.5 -4.9 95 0.1 WSW 46 57 25 31 - - 0.4
16/08:00am -4.0 -17.4 -4.7 95 0.1 SW 57 80 31 43 - - 0.4
16/07:56am -3.9 -17.1 -4.6 95 0.1 SW 56 76 30 41 - - 0.4
16/07:30am -4.0 -17.2 -4.7 95 0.1 SW 56 69 30 37 - - 0.4
16/07:00am -4.0 -17.2 -4.7 95 0.1 SW 56 72 30 39 - - 0.4
16/06:51am -3.6 -17.7 -4.3 95 0.1 SW 61 80 33 43 - - 0.4
16/06:30am -3.8 -17.6 -4.5 95 0.1 SW 59 69 32 37 - - 0.4
16/06:00am -3.5 -16.8 -4.0 96 0.0 SW 57 72 31 39 - - 0.2
16/05:30am -2.9 -15.2 -3.4 96 0.0 SW 52 70 28 38 - - 0.2
16/05:00am -2.9 -16.2 -3.4 96 0.0 SW 57 76 31 41 - - 0.0
16/04:39am -2.5 -15.7 -2.9 97 0.0 WSW 57 78 31 42 - - 0.0
16/04:30am -2.5 -15.7 -2.9 97 0.0 WSW 57 72 31 39 - - 0.0
16/04:00am -2.6 -17.7 -3.1 96 0.1 WSW 67 85 36 46 - - 0.0
16/03:30am -2.3 -17.8 -2.7 97 0.0 WSW 69 93 37 50 - - 0.0
16/03:00am -1.9 -17.0 -2.6 95 0.2 WSW 67 91 36 49 - - 0.0
16/02:50am -1.8 -18.6 -3.1 91 0.4 WSW 76 102 41 55 - - 0.0
16/02:49am -1.8 -18.6 -3.2 90 0.4 W 76 104 41 56 - - 0.0
16/02:37am -1.4 -18.4 -4.4 80 1.0 W 76 113 41 61 - - 0.0
16/02:34am -1.6 -16.7 -2.9 91 0.4 W 67 109 36 59 - - 0.0
16/02:30am -1.5 -14.6 -2.2 95 0.2 WSW 57 87 31 47 - - 0.0
16/02:00am -1.0 -16.0 -2.1 92 0.4 W 67 96 36 52 - - 0.0
16/01:30am -0.9 -15.9 -2.3 90 0.5 W 67 95 36 51 - - 0.0
16/01:24am -0.9 -15.2 -2.2 91 0.4 W 63 95 34 51 - - 0.0
16/01:00am -1.1 -14.0 -1.8 95 0.2 W 56 74 30 40 - - 0.0
16/12:30am -0.9 -13.4 -1.5 96 0.2 W 54 76 29 41 - - 0.0
16/12:01am -0.8 -14.2 -1.8 93 0.3 W 59 78 32 42 - - 0.0
16/12:00am -0.8 -14.6 -1.8 93 0.3 W 61 78 33 42 - - 0.0
 
Date/Time
EST
Temp
°C
App
Temp
°C
Dew
Point
°C
Rel
Hum
%
Delta-T
°C
Wind Press
QNH
hPa
Press
MSL
hPa
Rain since
9am
mm
Dir  Spd
km/h
Gust
km/h
Spd
kts
Gust
kts
15/11:30pm -1.2 -15.9 -2.8 89 0.5 W 65 85 35 46 - - 0.0
15/11:25pm -1.3 -15.3 -3.0 88 0.5 W 61 85 33 46 - - 0.0
15/11:00pm -1.0 -14.2 -2.6 89 0.5 W 57 72 31 39 - - 0.0
15/10:45pm -0.8 -12.5 -1.2 97 0.1 W 50 82 27 44 - - 0.0
15/10:30pm -0.3 -10.8 -1.1 94 0.3 WNW 44 56 24 30 - - 0.0
15/10:00pm -0.3 -11.2 -1.6 91 0.5 WNW 46 59 25 32 - - 0.0
15/09:30pm -0.2 -11.5 -1.6 90 0.5 WNW 48 63 26 34 - - 0.0
15/09:24pm -0.1 -10.1 -1.8 88 0.6 WNW 41 61 22 33 - - 0.0
15/09:00pm -0.2 -9.1 -2.1 87 0.7 WNW 35 54 19 29 - - 0.0
15/08:30pm 0.2 -6.3 -2.7 81 1.1 NW 22 35 12 19 - - 0.0
15/08:00pm 0.6 -7.9 -3.3 75 1.5 WNW 32 43 17 23 - - 0.0
15/07:30pm 0.7 -7.5 -3.9 71 1.7 WNW 30 41 16 22 - - 0.0
15/07:00pm 1.0 -5.7 -3.8 70 1.8 WNW 22 33 12 18 - - 0.0
15/06:30pm 1.6 -4.5 -3.5 69 2.0 WNW 19 24 10 13 - - 0.0
15/06:00pm 2.0 -2.9 -3.3 68 2.0 WNW 13 17 7 9 - - 0.0
15/05:30pm 3.0 -3.0 -3.3 63 2.3 WNW 19 24 10 13 - - 0.0
15/05:00pm 4.5 -0.7 -2.4 61 2.7 NW 15 22 8 12 - - 0.0
15/04:30pm 4.5 -1.1 -2.6 60 2.7 WNW 17 24 9 13 - - 0.0
15/04:00pm 5.1 -0.9 -2.9 56 3.1 NW 19 24 10 13 - - 0.0
15/03:30pm 5.8 0.2 -3.0 53 3.4 NW 17 24 9 13 - - 0.0
15/03:00pm 6.3 -0.7 -3.3 50 3.7 WNW 24 35 13 19 - - 0.0
15/02:40pm 6.1 -1.9 -6.1 41 4.4 WNW 28 48 15 26 - - 0.0
15/02:30pm 6.8 0.8 -3.1 49 3.9 WNW 19 30 10 16 - - 0.0
15/02:00pm 6.3 -0.3 -3.1 51 3.7 WNW 22 35 12 19 - - 0.0
15/01:30pm 6.8 0.7 -2.4 52 3.7 WNW 20 32 11 17 - - 0.0
15/01:00pm 6.3 1.9 -2.6 53 3.5 WNW 11 17 6 9 - - 0.0
15/12:30pm 6.1 0.1 -2.7 53 3.5 W 19 33 10 18 - - 0.0
15/12:00pm 5.8 1.5 -1.6 59 3.0 W 11 28 6 15 - - 0.0
15/11:30am 5.5 0.0 -1.9 59 2.9 SW 17 28 9 15 - - 0.0
15/11:00am 4.8 -0.7 -2.3 60 2.8 SW 17 22 9 12 - - 0.0
15/10:30am 4.8 -0.8 -2.5 59 2.8 WSW 17 35 9 19 - - 0.0
15/10:00am 4.8 -1.3 -3.5 55 3.1 W 19 28 10 15 - - 0.0
15/09:50am 4.3 -4.5 -4.2 54 3.1 SW 33 54 18 29 - - 0.0
15/09:33am 3.8 -6.1 -3.9 57 2.9 SW 39 57 21 31 - - 0.0
15/09:30am 4.0 -6.5 -6.3 47 3.6 SW 41 57 22 31 - - 0.0
15/09:21am 3.8 -6.1 -7.3 44 3.8 SW 37 57 20 31 - - 0.0
15/09:15am 3.4 -6.1 -3.8 59 2.7 SW 37 52 20 28 - - 0.0
15/09:04am 3.3 -6.7 -4.9 55 2.9 WSW 39 65 21 35 - - 0.0
15/09:00am 3.5 -7.2 -4.7 55 3.0 WSW 43 57 23 31 - - 0.0
15/08:58am 3.4 -7.6 -5.0 54 3.0 WSW 44 63 24 34 - - 0.0
15/08:30am 3.1 -9.6 -6.8 48 3.6 W 52 67 28 36 - - 0.0
15/08:06am 3.1 -9.7 -8.2 43 3.9 W 52 72 28 39 - - 0.0
15/08:00am 2.8 -9.6 -8.2 44 3.8 W 50 67 27 36 - - 0.0
15/07:30am 3.0 -7.6 -7.5 46 3.7 WSW 41 65 22 35 - - 0.0
15/07:00am 3.1 -7.6 -4.6 57 2.8 WSW 43 63 23 34 - - 0.0
15/06:31am 3.5 -7.3 -0.3 76 1.5 WSW 46 67 25 36 - - 0.0
15/06:30am 3.5 -7.7 -0.7 74 1.7 WSW 48 67 26 36 - - 0.0
15/06:00am 4.0 -7.0 1.0 81 1.3 WSW 48 74 26 40 - - 0.0
15/05:30am 4.5 -6.5 2.8 89 0.8 WSW 50 74 27 40 - - 0.0
15/05:00am 4.8 -7.9 2.8 87 0.9 WSW 59 89 32 48 - - 0.0
15/04:30am 4.9 -7.4 3.1 88 0.8 WSW 57 91 31 49 - - 0.0
15/04:00am 5.3 -8.1 3.6 89 0.8 WSW 63 98 34 53 - - 0.0
15/03:30am 5.5 -9.6 3.7 88 0.8 WSW 72 107 39 58 - - 0.0
15/03:00am 6.0 -9.1 3.3 83 1.2 WSW 72 96 39 52 - - 0.0
15/02:30am 5.9 -8.8 3.7 86 1.0 WSW 70 100 38 54 - - 0.0
15/02:00am 7.2 -8.6 3.6 78 1.7 W 76 117 41 63 - - 0.0
15/01:47am 6.4 -8.1 3.7 83 1.2 W 69 100 37 54 - - 0.0
15/01:30am 5.8 -6.4 3.6 86 1.0 W 57 82 31 44 - - 0.0
15/01:00am 6.2 -8.2 4.2 87 0.9 W 69 95 37 51 - - 0.0
15/12:30am 5.0 -9.1 3.8 92 0.5 W 67 89 36 48 - - 0.0
15/12:06am 5.2 -11.3 3.9 91 0.6 W 80 119 43 64 - - 0.0
15/12:00am 5.0 -10.8 3.7 91 0.6 W 76 98 41 53 - - 0.0
 
Date/Time
EST
Temp
°C
App
Temp
°C
Dew
Point
°C
Rel
Hum
%
Delta-T
°C
Wind Press
QNH
hPa
Press
MSL
hPa
Rain since
9am
mm
Dir  Spd
km/h
Gust
km/h
Spd
kts
Gust
kts
14/11:30pm 4.9 -12.4 3.1 88 0.8 W 83 107 45 58 - - 0.0
14/11:00pm 3.7 -12.7 0.1 77 1.5 W 76 106 41 57 - - 0.0
14/10:55pm 3.4 -12.4 -1.2 72 1.8 WNW 72 106 39 57 - - 0.0
14/10:32pm 3.0 -12.2 -4.0 60 2.6 WNW 67 87 36 47 - - 0.0
14/10:30pm 3.1 -11.7 -3.7 61 2.5 WNW 65 83 35 45 - - 0.0
14/10:00pm 3.3 -12.6 -4.6 56 2.9 WNW 70 93 38 50 - - 0.0
14/09:30pm 3.8 -10.5 -6.2 48 3.5 WNW 61 82 33 44 - - 0.0
14/09:28pm 3.6 -10.3 -6.1 49 3.4 WNW 59 82 32 44 - - 0.0
14/09:18pm 4.0 -11.9 -6.6 46 3.7 WNW 69 102 37 55 - - 0.0
14/09:10pm 4.8 -12.9 -7.3 41 4.2 WNW 78 102 42 55 - - 0.0
14/09:00pm 4.6 -13.0 -6.6 44 3.9 WNW 78 102 42 55 - - 0.0
14/08:56pm 4.5 -12.7 -7.0 43 4.0 WNW 76 102 41 55 - - 0.0
14/08:30pm 4.8 -9.4 -5.3 48 3.7 W 61 83 33 45 - - 0.0
14/08:00pm 5.5 -7.9 -7.0 40 4.4 W 56 83 30 45 - - 0.0
14/07:48pm 5.5 -6.9 -4.6 48 3.8 WNW 52 70 28 38 - - 0.0
14/07:30pm 5.5 -6.7 -5.5 45 4.0 WNW 50 69 27 37 - - 0.0
14/07:11pm 5.1 -6.7 -6.1 44 4.0 WNW 48 69 26 37 - - 0.0
14/07:00pm 4.7 -7.4 -5.1 49 3.6 WNW 50 61 27 33 - - 0.0
14/06:30pm 4.8 -6.8 -4.2 52 3.3 WNW 48 61 26 33 - - 0.0
14/06:00pm 4.8 -7.5 -3.5 55 3.1 WNW 52 72 28 39 - - 0.0
14/05:59pm 4.9 -7.4 -3.6 54 3.2 WNW 52 72 28 39 - - 0.0
14/05:30pm 5.0 -6.0 -1.7 62 2.7 WNW 46 57 25 31 - - 0.0
14/05:00pm 5.7 -5.6 -1.2 61 2.8 WNW 48 61 26 33 - - 0.0
14/04:30pm 6.1 -5.3 -1.8 57 3.2 W 48 69 26 37 - - 0.0
14/04:23pm 6.5 -5.5 -4.3 46 4.1 W 50 69 27 37 - - 0.0
14/04:00pm 7.4 -3.3 -4.7 42 4.6 W 43 59 23 32 - - 0.0
14/03:55pm 7.4 -2.6 -5.0 41 4.7 WNW 39 59 21 32 - - 0.0
14/03:30pm 7.5 -0.6 -3.4 46 4.3 WNW 30 43 16 23 - - 0.0
14/03:00pm 7.6 0.6 -0.8 55 3.5 WNW 26 33 14 18 - - 0.0
14/02:30pm 8.0 1.9 -2.3 48 4.2 W 20 37 11 20 - - 0.0
14/02:00pm 8.2 1.1 -1.3 51 3.9 WSW 26 39 14 21 - - 0.0
14/01:30pm 7.1 -1.0 -0.6 58 3.2 WSW 32 46 17 25 - - 0.0
14/01:00pm 7.8 0.9 -2.8 47 4.2 WSW 24 32 13 17 - - 0.0
14/12:30pm 6.7 0.8 -1.0 58 3.2 WSW 20 30 11 16 - - 0.0
14/12:00pm 5.7 1.4 -1.4 60 2.9 SW 11 19 6 10 - - 0.0
14/11:30am 6.0 0.7 -0.9 61 2.8 SW 17 22 9 12 - - 0.0
14/11:00am 4.7 -1.0 -0.7 68 2.2 SW 19 26 10 14 - - 0.0
14/10:30am 2.9 -3.4 -0.7 77 1.4 WSW 22 30 12 16 - - 0.0
14/10:00am 2.5 -3.2 0.7 88 0.7 SW 20 30 11 16 - - 0.0
14/09:30am 1.5 -5.8 0.3 92 0.5 SW 28 37 15 20 - - 0.0
14/09:00am 0.8 -8.2 0.1 95 0.3 SW 37 44 20 24 - - 1.4

Other formats

Comma delimited format used in spreadsheet applications
http://www.bom.gov.au/fwo/IDT60801/IDT60801.95979.axf

JavaScript Object Notation format (JSON) in row-major order
http://www.bom.gov.au/fwo/IDT60801/IDT60801.95979.json

Data quality

Most of these data are generated automatically and are frequently updated. Quality checks on data are not normally performed. It is possible for incorrect values to appear. Refer to information at About Latest Weather Observations and please check the disclaimer before using these data.